Time;durP1;ratioP1;P1;durP2;ratioP2;P2;SDS_P1;SDS_P2;PMS_P1;PMS_P2;Temp;Humidity;BMP_temperature;BMP_pressure;BME280_temperature;BME280_humidity;BME280_pressure;Samples;Min_cycle;Max_cycle;Signal;HPM_P1;HPM_P2
2022/12/13 00:01:56;;;;;;;32.40;17.23;;;3.30;90.60;;;;;;5077229;28;20024;-73
2022/12/13 00:04:25;;;;;;;29.85;16.38;;;3.30;90.70;;;;;;5075778;28;20035;-74
2022/12/13 00:06:52;;;;;;;31.02;16.08;;;3.30;90.70;;;;;;5075727;28;20104;-74
2022/12/13 00:09:19;;;;;;;29.08;16.10;;;3.30;90.70;;;;;;5075611;28;20036;-75
2022/12/13 00:11:44;;;;;;;27.80;16.10;;;3.30;90.80;;;;;;5075562;28;20024;-75
2022/12/13 00:14:12;;;;;;;29.02;16.73;;;3.30;90.90;;;;;;5076642;28;20059;-75
2022/12/13 00:16:39;;;;;;;30.60;16.10;;;3.30;90.90;;;;;;5076791;28;20032;-75
2022/12/13 00:19:05;;;;;;;29.73;16.88;;;3.30;90.90;;;;;;5075412;28;20032;-75
2022/12/13 00:21:32;;;;;;;32.45;16.42;;;3.30;90.90;;;;;;5059219;28;20037;-75
2022/12/13 00:23:59;;;;;;;30.10;16.58;;;3.30;91.00;;;;;;5076553;28;20040;-75
2022/12/13 00:26:28;;;;;;;33.25;16.35;;;3.30;91.10;;;;;;5075622;28;20166;-75
2022/12/13 00:28:54;;;;;;;29.02;16.02;;;3.40;91.10;;;;;;5074872;28;20056;-75
2022/12/13 00:31:22;;;;;;;30.45;18.00;;;3.40;91.10;;;;;;5075314;28;20465;-75
2022/12/13 00:33:48;;;;;;;33.72;17.13;;;3.40;91.10;;;;;;5076311;28;20465;-75
2022/12/13 00:36:14;;;;;;;30.02;15.60;;;3.50;91.10;;;;;;5076163;28;20465;-75
2022/12/13 00:38:40;;;;;;;29.75;17.40;;;3.50;91.10;;;;;;5075351;28;20033;-75
2022/12/13 00:41:14;;;;;;;30.08;16.67;;;3.50;91.40;;;;;;5076284;28;20027;-75
2022/12/13 00:43:40;;;;;;;31.08;16.13;;;3.50;91.10;;;;;;5076261;28;20020;-75
2022/12/13 00:46:12;;;;;;;30.42;16.63;;;3.50;91.00;;;;;;5076100;28;20024;-75
2022/12/13 00:48:37;;;;;;;32.60;17.65;;;3.50;91.00;;;;;;5059193;28;20040;-75
2022/12/13 00:51:06;;;;;;;33.95;17.35;;;3.50;90.90;;;;;;5058005;28;20478;-74
2022/12/13 00:53:32;;;;;;;32.85;18.33;;;3.40;90.70;;;;;;5074684;28;20055;-75
2022/12/13 00:55:58;;;;;;;33.67;18.00;;;3.20;90.50;;;;;;5076117;28;20036;-74
2022/12/13 00:58:23;;;;;;;29.45;16.90;;;3.00;90.60;;;;;;5074478;28;20037;-74
2022/12/13 01:00:49;;;;;;;34.10;16.73;;;2.80;91.00;;;;;;5075794;28;20029;-74
2022/12/13 01:03:24;;;;;;;34.00;18.17;;;2.70;91.20;;;;;;5075730;28;20035;-74
2022/12/13 01:05:50;;;;;;;32.60;16.90;;;2.60;91.40;;;;;;5076113;28;20020;-74
2022/12/13 01:08:15;;;;;;;34.65;17.83;;;2.50;91.50;;;;;;5074693;28;20051;-74
2022/12/13 01:10:45;;;;;;;33.67;16.90;;;2.50;91.60;;;;;;5057696;28;20170;-74
2022/12/13 01:13:12;;;;;;;31.83;17.10;;;2.50;91.60;;;;;;5076040;28;20044;-74
2022/12/13 01:15:46;;;;;;;29.17;16.40;;;2.50;91.60;;;;;;5074296;28;20029;-74
2022/12/13 01:18:12;;;;;;;;;;;2.50;91.70;;;;;;5075802;28;20087;-74
2022/12/13 01:20:38;;;;;;;31.58;15.77;;;2.50;91.60;;;;;;5091681;28;19939;-74
2022/12/13 01:23:05;;;;;;;31.67;16.95;;;2.60;91.40;;;;;;5075726;28;20020;-74
2022/12/13 01:25:32;;;;;;;34.67;16.98;;;2.70;91.30;;;;;;5074951;28;20025;-74
2022/12/13 01:27:59;;;;;;;39.53;18.48;;;2.80;91.30;;;;;;5075519;28;20025;-75
2022/12/13 01:30:25;;;;;;;32.75;16.17;;;2.80;91.20;;;;;;5074018;28;20029;-74
2022/12/13 01:32:50;;;;;;;32.60;17.40;;;2.90;91.20;;;;;;5075365;28;20056;-74
2022/12/13 01:35:16;;;;;;;34.92;17.90;;;2.90;91.10;;;;;;5075449;28;20057;-74
2022/12/13 01:37:42;;;;;;;25.95;15.80;;;2.90;91.20;;;;;;5075379;28;20082;-74
2022/12/13 01:40:08;;;;;;;28.10;15.50;;;2.90;91.10;;;;;;5073989;28;20035;-75
2022/12/13 01:42:37;;;;;;;30.77;16.75;;;3.00;91.10;;;;;;5057284;28;20043;-74
2022/12/13 01:45:23;;;;;;;32.35;17.60;;;3.00;91.10;;;;;;5075251;28;20044;-74
2022/12/13 01:47:57;;;;;;;31.98;17.15;;;3.00;91.00;;;;;;5058315;28;20055;-75
2022/12/13 01:50:37;;;;;;;30.00;16.30;;;3.00;91.00;;;;;;5075223;28;20086;-74
2022/12/13 01:53:06;;;;;;;25.92;14.70;;;3.00;91.10;;;;;;5075121;28;20024;-74
2022/12/13 01:55:35;;;;;;;30.70;15.82;;;3.00;91.10;;;;;;5074377;28;20496;-74
2022/12/13 01:58:03;;;;;;;31.92;16.25;;;3.10;91.10;;;;;;5073878;28;20031;-74
2022/12/13 02:00:29;;;;;;;28.05;15.18;;;3.10;91.10;;;;;;5074517;28;20419;-75
2022/12/13 02:02:57;;;;;;;30.42;15.57;;;3.20;91.00;;;;;;5074800;28;20036;-74
2022/12/13 02:05:33;;;;;;;27.42;16.08;;;3.10;91.00;;;;;;5073821;28;20107;-75
2022/12/13 02:08:01;;;;;;;29.63;16.05;;;3.20;91.00;;;;;;5074774;28;20031;-74
2022/12/13 02:10:28;;;;;;;33.60;16.25;;;3.10;91.00;;;;;;5074237;28;20552;-74
2022/12/13 02:12:54;;;;;;;31.10;16.13;;;3.10;91.00;;;;;;5074252;28;20055;-75
2022/12/13 02:15:21;;;;;;;28.83;16.38;;;3.10;91.00;;;;;;5074582;28;20029;-75
2022/12/13 02:18:07;;;;;;;29.38;15.88;;;3.20;91.00;;;;;;5074228;28;20037;-74
2022/12/13 02:20:55;;;;;;;28.88;14.95;;;3.10;91.00;;;;;;5074413;28;20112;-74
2022/12/13 02:23:49;;;;;;;32.55;16.30;;;3.10;91.00;;;;;;5074030;28;20039;-73
2022/12/13 02:26:33;;;;;;;;;;;3.10;90.90;;;;;;5073790;28;20090;-74
2022/12/13 02:28:59;;;;;;;32.28;17.20;;;3.10;90.90;;;;;;5073778;28;19913;-74
2022/12/13 02:31:41;;;;;;;28.55;16.75;;;3.00;91.00;;;;;;5074038;28;20025;-73
2022/12/13 02:34:09;;;;;;;31.25;16.42;;;2.90;91.20;;;;;;5074285;28;20016;-73
2022/12/13 02:36:55;;;;;;;34.95;18.20;;;2.80;91.30;;;;;;5073897;28;20021;-73
2022/12/13 02:39:25;;;;;;;30.63;17.10;;;2.70;91.60;;;;;;5073883;28;20050;-73
2022/12/13 02:42:24;;;;;;;32.38;17.13;;;2.60;91.80;;;;;;5073868;28;20119;-74
2022/12/13 02:45:00;;;;;;;30.83;16.17;;;2.60;92.00;;;;;;5062059;28;20115;-73
2022/12/13 02:47:27;;;;;;;34.70;17.90;;;2.70;92.10;;;;;;5073778;28;20031;-74
2022/12/13 02:49:58;;;;;;;31.35;17.80;;;2.70;92.00;;;;;;5072516;28;20113;-73
2022/12/13 02:52:27;;;;;;;35.25;18.90;;;2.60;92.30;;;;;;5073987;28;20028;-73
2022/12/13 02:54:54;;;;;;;31.80;17.23;;;2.50;92.50;;;;;;5073174;28;20024;-73
2022/12/13 02:57:37;;;;;;;32.78;17.80;;;2.40;92.60;;;;;;5073896;28;20017;-73
2022/12/13 03:00:06;;;;;;;31.45;17.58;;;2.50;92.90;;;;;;5074236;28;20036;-73
2022/12/13 03:02:44;;;;;;;34.83;18.05;;;2.50;92.70;;;;;;5073795;28;20103;-74
2022/12/13 03:08:20;;;;;;;32.97;17.70;;;2.30;93.10;;;;;;5073472;28;20113;-74
2022/12/13 03:11:02;;;;;;;34.92;17.10;;;2.30;93.20;;;;;;5072393;28;20532;-74
2022/12/13 03:13:54;;;;;;;33.95;18.58;;;2.30;93.30;;;;;;5073693;28;20062;-74
2022/12/13 03:16:35;;;;;;;32.70;17.20;;;2.20;93.40;;;;;;5073946;28;20044;-74
2022/12/13 03:19:06;;;;;;;32.88;17.45;;;2.30;93.40;;;;;;5073669;28;20029;-74
2022/12/13 03:21:58;;;;;;;33.03;18.63;;;2.30;93.50;;;;;;5073224;28;20063;-74
2022/12/13 03:24:24;;;;;;;39.88;20.00;;;2.30;93.40;;;;;;5070146;28;20115;-74
2022/12/13 03:26:50;;;;;;;35.80;19.33;;;2.30;93.40;;;;;;5072110;28;20441;-74
2022/12/13 03:29:17;;;;;;;37.33;18.58;;;2.30;93.50;;;;;;5073167;28;20033;-74
2022/12/13 03:31:43;;;;;;;32.00;19.02;;;2.30;93.60;;;;;;5072648;28;20366;-74
2022/12/13 03:34:08;;;;;;;35.78;18.10;;;2.30;93.60;;;;;;5072354;28;20162;-74
2022/12/13 03:36:34;;;;;;;35.05;19.42;;;2.30;93.60;;;;;;5073594;28;20025;-74
2022/12/13 03:39:00;;;;;;;34.67;19.08;;;2.20;93.60;;;;;;5055451;28;20392;-73
2022/12/13 03:41:30;;;;;;;32.92;18.35;;;2.20;93.70;;;;;;5071861;28;20400;-74
2022/12/13 03:43:58;;;;;;;29.42;17.02;;;2.20;93.70;;;;;;5073447;28;20110;-74
2022/12/13 03:46:24;;;;;;;29.83;17.08;;;2.30;93.70;;;;;;5072077;28;20078;-74
2022/12/13 03:48:49;;;;;;;29.65;17.02;;;2.30;93.60;;;;;;5072012;28;20041;-74
2022/12/13 03:51:15;;;;;;;32.25;16.55;;;2.40;93.50;;;;;;5071567;28;20477;-74
2022/12/13 03:53:40;;;;;;;28.80;16.88;;;2.50;93.40;;;;;;5072830;28;20040;-74
2022/12/13 03:56:06;;;;;;;33.47;16.98;;;2.50;93.40;;;;;;5072021;28;20060;-74
2022/12/13 03:58:33;;;;;;;30.17;16.05;;;2.50;93.30;;;;;;5055309;28;20515;-75
2022/12/13 04:00:59;;;;;;;30.25;16.85;;;2.60;93.20;;;;;;5073013;28;20096;-74
2022/12/13 04:03:24;;;;;;;32.35;18.15;;;2.70;93.20;;;;;;5071973;28;20119;-74
2022/12/13 04:05:50;;;;;;;33.95;17.50;;;2.60;93.10;;;;;;5071930;28;20029;-74
2022/12/13 04:08:16;;;;;;;32.70;17.75;;;2.60;93.00;;;;;;5071842;28;20028;-74
2022/12/13 04:10:41;;;;;;;33.67;17.05;;;2.60;93.00;;;;;;5071624;28;20461;-75
2022/12/13 04:15:52;;;;;;;33.50;18.38;;;2.80;92.90;;;;;;5072880;28;20043;-75
2022/12/13 04:18:18;;;;;;;30.83;17.67;;;2.70;92.80;;;;;;5072728;28;20404;-75
2022/12/13 04:20:46;;;;;;;35.17;17.45;;;2.70;92.80;;;;;;5072110;28;20041;-74
2022/12/13 04:23:11;;;;;;;29.27;15.95;;;2.70;92.80;;;;;;5072941;28;20032;-76
2022/12/13 04:25:38;;;;;;;28.70;16.55;;;2.70;92.70;;;;;;5054481;28;20025;-77
2022/12/13 04:28:04;;;;;;;33.72;17.90;;;2.80;92.70;;;;;;5088518;28;20522;-76
2022/12/13 04:30:30;;;;;;;34.47;18.58;;;2.70;92.60;;;;;;5072504;28;20146;-77
2022/12/13 04:32:56;;;;;;;27.75;16.30;;;2.70;92.60;;;;;;5072947;28;20113;-77
2022/12/13 04:35:22;;;;;;;28.38;16.75;;;2.70;92.60;;;;;;5072856;28;20109;-76
2022/12/13 04:37:48;;;;;;;32.63;18.13;;;2.70;92.60;;;;;;5071515;28;20040;-77
2022/12/13 04:40:13;;;;;;;33.30;18.23;;;2.70;92.50;;;;;;5071448;28;20037;-75
2022/12/13 04:42:39;;;;;;;33.55;18.00;;;2.60;92.40;;;;;;5071340;28;20032;-75
2022/12/13 04:45:05;;;;;;;29.75;16.52;;;2.60;92.50;;;;;;5074808;28;20064;-75
2022/12/13 04:47:31;;;;;;;30.90;17.35;;;2.50;92.50;;;;;;5074836;28;20434;-76
2022/12/13 04:49:56;;;;;;;30.27;16.50;;;2.50;92.60;;;;;;5075820;28;20071;-75
2022/12/13 04:52:22;;;;;;;34.55;18.67;;;2.50;92.60;;;;;;5075975;28;20460;-75
2022/12/13 04:54:48;;;;;;;33.30;18.10;;;2.40;92.50;;;;;;5075475;28;20024;-75
2022/12/13 04:57:14;;;;;;;32.58;18.17;;;2.30;92.80;;;;;;5074421;28;20437;-76
2022/12/13 04:59:40;;;;;;;30.98;17.45;;;2.20;92.70;;;;;;5074641;28;20071;-76
2022/12/13 05:02:07;;;;;;;32.35;17.25;;;2.10;92.80;;;;;;5075616;28;20047;-76
2022/12/13 05:04:33;;;;;;;35.92;18.42;;;2.10;93.00;;;;;;5075196;28;20064;-75
2022/12/13 05:06:59;;;;;;;36.72;19.15;;;2.10;93.00;;;;;;5075633;28;20056;-76
2022/12/13 05:09:25;;;;;;;35.30;18.00;;;2.00;93.00;;;;;;5075516;28;20067;-76
2022/12/13 05:11:50;;;;;;;36.88;18.38;;;2.00;93.30;;;;;;5074408;28;20056;-76
2022/12/13 05:14:16;;;;;;;36.92;18.20;;;2.00;93.40;;;;;;5075671;28;20558;-76
2022/12/13 05:16:42;;;;;;;34.15;18.98;;;2.00;93.40;;;;;;5074604;28;20074;-75
2022/12/13 05:19:07;;;;;;;32.65;18.02;;;1.90;93.40;;;;;;5075436;28;20032;-75
2022/12/13 05:21:33;;;;;;;33.45;18.30;;;1.90;93.80;;;;;;5057957;28;20058;-75
2022/12/13 05:24:01;;;;;;;39.47;19.25;;;1.90;93.80;;;;;;5074855;28;20020;-75
2022/12/13 05:26:27;;;;;;;34.13;17.95;;;1.80;93.80;;;;;;5075643;28;20477;-75
2022/12/13 05:28:55;;;;;;;35.47;18.70;;;1.70;94.00;;;;;;5075194;28;20533;-75
2022/12/13 05:31:21;;;;;;;33.90;18.85;;;1.70;94.00;;;;;;5074321;28;20032;-75
2022/12/13 05:33:47;;;;;;;29.25;16.45;;;1.70;94.00;;;;;;5074140;28;20033;-75
2022/12/13 05:36:12;;;;;;;32.45;17.85;;;1.60;94.10;;;;;;5073671;28;20039;-75
2022/12/13 05:38:38;;;;;;;33.85;17.30;;;1.60;94.20;;;;;;5074072;28;20036;-75
2022/12/13 05:41:04;;;;;;;36.55;19.75;;;1.70;94.20;;;;;;5075202;28;20060;-75
2022/12/13 05:43:30;;;;;;;36.35;19.75;;;1.70;94.00;;;;;;5075344;28;20028;-76
2022/12/13 05:45:55;;;;;;;37.88;19.23;;;1.70;94.00;;;;;;5073419;28;20028;-75
2022/12/13 05:48:21;;;;;;;35.42;18.60;;;1.70;94.10;;;;;;5073857;28;20102;-74
2022/12/13 05:50:46;;;;;;;28.85;16.80;;;1.60;94.20;;;;;;5074681;28;20028;-75
2022/12/13 05:53:12;;;;;;;27.63;14.77;;;1.70;94.30;;;;;;5074805;28;20372;-75
2022/12/13 05:55:38;;;;;;;31.98;17.02;;;1.80;96.00;;;;;;5073796;28;20029;-75
2022/12/13 05:58:04;;;;;;;23.35;13.75;;;2.00;96.70;;;;;;5074964;28;20385;-75
2022/12/13 06:00:30;;;;;;;26.48;15.18;;;2.20;97.30;;;;;;5074067;28;20033;-81
2022/12/13 06:02:56;;;;;;;32.50;18.08;;;2.40;97.90;;;;;;5049465;28;20032;-81
2022/12/13 06:05:21;;;;;;;26.60;15.45;;;2.50;98.20;;;;;;5057049;28;20048;-81
2022/12/13 06:07:47;;;;;;;28.20;16.70;;;2.60;97.70;;;;;;5062355;28;20032;-82
2022/12/13 06:10:13;;;;;;;26.35;15.55;;;2.60;96.70;;;;;;5056681;28;20485;-83
2022/12/13 06:12:39;;;;;;;27.35;15.13;;;2.60;96.20;;;;;;5074175;28;20105;-82
2022/12/13 06:15:06;;;;;;;31.30;16.50;;;2.80;96.70;;;;;;5056265;28;20036;-79
2022/12/13 06:17:33;;;;;;;27.08;15.18;;;2.80;96.30;;;;;;5056333;28;20397;-78
2022/12/13 06:19:59;;;;;;;28.25;16.02;;;2.80;96.30;;;;;;5059857;28;20036;-77
2022/12/13 06:22:26;;;;;;;31.20;16.52;;;2.90;95.90;;;;;;5072594;28;20115;-76
2022/12/13 06:24:52;;;;;;;28.85;16.35;;;2.90;95.70;;;;;;5072049;28;20024;-78
2022/12/13 06:27:17;;;;;;;23.20;13.57;;;2.90;95.90;;;;;;5069482;28;20033;-78
2022/12/13 06:29:43;;;;;;;28.60;15.98;;;3.00;96.50;;;;;;5067141;28;20499;-79
2022/12/13 06:32:08;;;;;;;27.27;14.40;;;3.10;96.00;;;;;;5072428;28;20035;-79
2022/12/13 06:34:35;;;;;;;25.95;15.70;;;3.10;95.00;;;;;;5069330;28;20028;-78
2022/12/13 06:37:03;;;;;;;24.45;14.38;;;3.20;95.40;;;;;;5057395;28;20073;-79
2022/12/13 06:39:29;;;;;;;33.60;15.93;;;3.20;95.30;;;;;;5070743;28;20074;-76
2022/12/13 06:41:55;;;;;;;25.30;15.60;;;3.20;95.60;;;;;;5054909;28;20033;-76
2022/12/13 06:44:21;;;;;;;30.13;15.75;;;3.30;95.70;;;;;;5071989;28;20021;-78
2022/12/13 06:46:46;;;;;;;28.88;15.68;;;3.40;95.70;;;;;;5054990;28;20549;-77
2022/12/13 06:49:12;;;;;;;26.63;15.57;;;3.50;95.60;;;;;;5067311;28;20036;-78
2022/12/13 06:51:38;;;;;;;28.13;16.75;;;3.60;95.40;;;;;;5069917;28;20020;-76
2022/12/13 06:54:03;;;;;;;33.15;17.58;;;3.60;95.20;;;;;;5053559;28;20052;-77
2022/12/13 06:56:30;;;;;;;27.15;15.88;;;3.60;94.50;;;;;;5071016;28;20094;-75
2022/12/13 06:58:56;;;;;;;28.48;17.58;;;3.60;94.10;;;;;;5072310;28;20032;-77
2022/12/13 07:01:22;;;;;;;29.65;17.75;;;3.60;94.00;;;;;;5055236;28;20079;-77
2022/12/13 07:03:47;;;;;;;29.88;17.27;;;3.60;93.60;;;;;;5071579;28;20461;-77
2022/12/13 07:06:19;;;;;;;30.85;17.80;;;3.60;93.50;;;;;;5066631;28;20469;-76
2022/12/13 07:08:49;;;;;;;33.72;19.20;;;3.60;93.40;;;;;;5070703;28;20029;-77
2022/12/13 07:11:16;;;;;;;27.58;16.23;;;3.50;92.70;;;;;;5065913;28;20025;-77
2022/12/13 07:13:42;;;;;;;35.65;18.48;;;3.50;92.60;;;;;;5050923;28;20127;-77
2022/12/13 07:16:09;;;;;;;30.08;17.15;;;3.50;92.20;;;;;;5048332;28;20068;-75
2022/12/13 07:18:35;;;;;;;27.27;16.58;;;3.50;92.60;;;;;;5051953;28;20495;-75
2022/12/13 07:21:04;;;;;;;33.78;18.27;;;3.50;92.90;;;;;;5051925;28;20099;-75
2022/12/13 07:23:30;;;;;;;29.80;17.15;;;3.50;92.60;;;;;;5052867;28;20083;-75
2022/12/13 07:25:55;;;;;;;29.08;17.63;;;3.50;92.50;;;;;;5051118;28;20037;-75
2022/12/13 07:28:21;;;;;;;30.30;16.48;;;3.40;92.30;;;;;;5052469;28;20033;-75
2022/12/13 07:30:47;;;;;;;31.05;17.83;;;3.40;92.30;;;;;;5051963;28;20036;-75
2022/12/13 07:33:13;;;;;;;29.67;16.52;;;3.40;93.10;;;;;;5053021;28;20033;-75
2022/12/13 07:35:40;;;;;;;29.95;17.17;;;3.40;92.70;;;;;;5053006;28;20053;-75
2022/12/13 07:38:06;;;;;;;27.08;16.10;;;3.40;92.80;;;;;;5053202;28;20127;-76
2022/12/13 07:40:33;;;;;;;29.08;16.45;;;3.40;92.80;;;;;;5053088;28;20048;-75
2022/12/13 07:42:59;;;;;;;30.10;17.48;;;3.40;93.30;;;;;;5051857;28;20490;-75
2022/12/13 07:45:25;;;;;;;32.28;19.23;;;3.40;92.80;;;;;;5055852;28;20052;-76
2022/12/13 07:47:51;;;;;;;37.88;20.25;;;3.40;93.00;;;;;;5071323;28;20149;-77
2022/12/13 07:50:19;;;;;;;31.15;18.85;;;3.30;92.30;;;;;;5071383;28;20380;-76
2022/12/13 07:52:46;;;;;;;31.70;18.45;;;3.30;92.10;;;;;;5071967;28;20354;-77
2022/12/13 07:55:21;;;;;;;37.65;20.15;;;3.40;92.80;;;;;;5071374;28;20499;-77
2022/12/13 07:57:47;;;;;;;35.33;18.80;;;3.40;92.40;;;;;;5071829;28;20032;-77
2022/12/13 08:00:13;;;;;;;35.70;19.58;;;3.40;92.20;;;;;;5071737;28;20127;-77
2022/12/13 08:02:40;;;;;;;35.05;20.58;;;3.40;91.80;;;;;;5055296;28;20084;-77
2022/12/13 08:05:06;;;;;;;33.95;20.27;;;3.20;91.50;;;;;;5071708;28;20031;-76
2022/12/13 08:07:32;;;;;;;35.58;19.92;;;3.20;91.80;;;;;;5073378;28;20025;-77
2022/12/13 08:09:58;;;;;;;38.17;20.85;;;3.20;91.70;;;;;;5071418;28;20094;-77
2022/12/13 08:12:23;;;;;;;37.65;20.60;;;3.20;91.60;;;;;;5054956;28;20358;-77
2022/12/13 08:14:49;;;;;;;39.30;22.10;;;3.20;91.50;;;;;;5071831;28;20090;-77
2022/12/13 08:17:15;;;;;;;36.85;19.08;;;3.20;91.70;;;;;;5071944;28;20038;-78
2022/12/13 08:19:41;;;;;;;35.72;20.95;;;3.30;91.90;;;;;;5075391;28;20036;-77
2022/12/13 08:22:06;;;;;;;36.72;21.30;;;3.30;91.90;;;;;;5076667;28;20032;-77
2022/12/13 08:24:34;;;;;;;39.22;23.08;;;3.30;91.60;;;;;;5074963;28;20028;-77
2022/12/13 08:27:01;;;;;;;39.20;20.23;;;3.20;91.60;;;;;;5076903;28;20039;-77
2022/12/13 08:29:28;;;;;;;37.63;20.90;;;3.30;91.90;;;;;;5058540;28;20041;-77
2022/12/13 08:31:54;;;;;;;37.40;22.30;;;3.40;92.10;;;;;;5074875;28;20107;-77
2022/12/13 08:34:19;;;;;;;42.75;22.52;;;3.40;91.70;;;;;;5074886;28;20117;-78
2022/12/13 08:36:45;;;;;;;38.78;21.50;;;3.30;91.50;;;;;;5058506;28;20123;-77
2022/12/13 08:39:10;;;;;;;41.65;22.23;;;3.30;91.70;;;;;;5058577;28;20086;-76
2022/12/13 08:41:36;;;;;;;38.33;21.85;;;3.30;91.50;;;;;;5075127;28;20358;-77
2022/12/13 08:44:02;;;;;;;41.22;22.40;;;3.30;91.40;;;;;;5058195;28;20062;-77
2022/12/13 08:46:27;;;;;;;40.65;22.05;;;3.30;91.50;;;;;;5076662;28;20025;-77
2022/12/13 08:48:53;;;;;;;43.95;23.98;;;3.30;91.50;;;;;;5076105;28;20064;-77
2022/12/13 08:51:22;;;;;;;39.92;22.33;;;3.30;91.30;;;;;;5074980;28;20039;-78
2022/12/13 08:53:49;;;;;;;39.05;22.10;;;3.20;91.30;;;;;;5075104;28;20025;-77
2022/12/13 08:56:17;;;;;;;41.80;21.63;;;3.20;91.70;;;;;;5074997;28;20032;-77
2022/12/13 08:58:43;;;;;;;39.83;22.25;;;3.20;91.50;;;;;;5074804;28;20081;-78
2022/12/13 09:01:09;;;;;;;38.35;22.63;;;3.30;91.30;;;;;;5075993;28;20020;-77
2022/12/13 09:03:36;;;;;;;38.42;22.48;;;3.30;91.20;;;;;;5074674;28;20035;-78
2022/12/13 09:06:10;;;;;;;46.50;24.55;;;3.30;91.30;;;;;;5057739;28;20074;-79
2022/12/13 09:08:37;;;;;;;40.70;22.63;;;3.40;91.30;;;;;;5075526;28;20469;-79
2022/12/13 09:11:03;;;;;;;46.03;24.33;;;3.40;91.10;;;;;;5075109;28;20029;-80
2022/12/13 09:13:31;;;;;;;35.97;21.50;;;3.30;91.40;;;;;;5075889;28;20075;-78
2022/12/13 09:15:58;;;;;;;39.53;22.67;;;3.30;91.50;;;;;;5074469;28;20028;-79
2022/12/13 09:18:24;;;;;;;39.25;22.70;;;3.30;91.90;;;;;;5073663;28;20036;-81
2022/12/13 09:20:50;;;;;;;40.45;22.65;;;3.40;91.60;;;;;;5057429;28;20032;-80
2022/12/13 09:23:16;;;;;;;36.33;21.13;;;3.40;91.50;;;;;;5074997;28;20032;-80
2022/12/13 09:25:41;;;;;;;43.15;22.85;;;3.30;91.50;;;;;;5073726;28;20381;-80
2022/12/13 09:28:08;;;;;;;40.08;22.70;;;3.40;91.60;;;;;;5054215;28;20404;-79
2022/12/13 09:30:37;;;;;;;39.97;23.60;;;3.50;91.70;;;;;;5053563;28;20040;-79
2022/12/13 09:33:03;;;;;;;41.72;23.20;;;3.50;91.40;;;;;;5070278;28;20072;-79
2022/12/13 09:35:29;;;;;;;42.10;24.50;;;3.40;91.30;;;;;;5070907;28;20079;-80
2022/12/13 09:37:55;;;;;;;42.47;24.10;;;3.40;91.30;;;;;;5055487;28;20056;-81
2022/12/13 09:40:26;;;;;;;44.90;24.35;;;3.30;91.00;;;;;;5055429;28;20485;-82
2022/12/13 09:42:54;;;;;;;42.90;24.08;;;3.10;91.20;;;;;;5070834;28;20063;-81
2022/12/13 09:45:20;;;;;;;40.70;23.73;;;3.10;91.20;;;;;;5070829;28;20033;-79
2022/12/13 09:47:47;;;;;;;42.47;24.35;;;3.10;91.20;;;;;;5053488;28;20044;-81
2022/12/13 09:50:18;;;;;;;39.47;22.38;;;3.10;91.10;;;;;;5055028;28;20048;-81
2022/12/13 09:52:45;;;;;;;40.88;22.92;;;3.10;91.00;;;;;;5070595;28;20057;-80
2022/12/13 09:55:47;;;;;;;41.83;24.10;;;3.20;91.20;;;;;;5072984;28;20025;-81
2022/12/13 09:58:21;;;;;;;37.75;21.40;;;3.20;91.10;;;;;;4967446;28;20030;-81
2022/12/13 10:00:50;;;;;;;41.85;22.40;;;3.30;91.30;;;;;;5057465;28;20040;-80
2022/12/13 10:03:18;;;;;;;40.75;23.30;;;3.40;91.00;;;;;;5074525;28;20043;-82
2022/12/13 10:05:52;;;;;;;37.70;21.30;;;3.40;90.80;;;;;;5073291;28;20020;-80
2022/12/13 10:08:23;;;;;;;39.20;20.85;;;3.50;90.90;;;;;;5074551;28;20055;-82
2022/12/13 10:10:51;;;;;;;31.48;18.20;;;3.60;91.30;;;;;;5075006;28;20021;-82
2022/12/13 10:13:31;;;;;;;39.63;22.75;;;3.80;91.00;;;;;;5073135;28;20048;-82
2022/12/13 10:16:12;;;;;;;39.83;21.70;;;3.90;90.60;;;;;;5073433;28;20028;-82
2022/12/13 10:18:40;;;;;;;38.67;22.40;;;3.80;90.00;;;;;;5074859;28;20033;-83
2022/12/13 10:21:20;;;;;;;39.67;22.77;;;3.70;90.10;;;;;;5073794;28;20415;-83
2022/12/13 10:23:46;;;;;;;37.30;22.05;;;3.80;90.30;;;;;;5074562;28;20088;-81
2022/12/13 10:26:13;;;;;;;37.42;22.67;;;3.80;90.30;;;;;;5073389;28;20080;-83
2022/12/13 10:28:40;;;;;;;36.95;21.55;;;3.70;89.80;;;;;;5057401;28;20036;-81
2022/12/13 10:31:06;;;;;;;39.13;22.85;;;3.70;90.00;;;;;;5074076;28;20035;-82
2022/12/13 10:33:34;;;;;;;41.17;22.95;;;3.70;89.30;;;;;;5075436;28;20032;-82
2022/12/13 10:36:07;;;;;;;41.50;23.77;;;3.50;89.30;;;;;;5074485;28;20452;-82
2022/12/13 10:38:41;;;;;;;45.30;24.90;;;3.40;89.30;;;;;;5074505;28;20131;-82
2022/12/13 10:41:29;;;;;;;36.83;21.05;;;3.30;89.10;;;;;;5074406;28;20111;-81
2022/12/13 10:44:13;;;;;;;42.65;23.95;;;3.30;89.40;;;;;;5074009;28;20028;-81
2022/12/13 10:47:00;;;;;;;39.60;22.95;;;3.40;89.40;;;;;;5072771;28;20380;-81
2022/12/13 10:49:34;;;;;;;35.55;20.85;;;3.40;89.10;;;;;;5071295;28;20045;-81
2022/12/13 10:52:00;;;;;;;37.60;19.60;;;3.50;90.20;;;;;;5073228;28;20024;-81
2022/12/13 10:54:32;;;;;;;39.40;21.85;;;3.60;90.00;;;;;;5055805;28;20036;-81
2022/12/13 10:56:59;;;;;;;37.08;21.50;;;3.70;90.00;;;;;;5074212;28;20058;-79
2022/12/13 10:59:38;;;;;;;37.33;22.02;;;3.70;90.00;;;;;;5073908;28;20028;-80
2022/12/13 11:02:29;;;;;;;40.53;22.75;;;3.80;90.10;;;;;;5073723;28;20050;-80
2022/12/13 11:04:57;;;;;;;37.88;20.95;;;3.80;89.90;;;;;;5074274;28;20468;-79
2022/12/13 11:07:28;;;;;;;34.33;21.13;;;3.90;89.80;;;;;;5071969;28;20048;-79
2022/12/13 11:09:55;;;;;;;36.92;21.65;;;3.80;87.90;;;;;;5073402;28;20158;-79
2022/12/13 11:12:25;;;;;;;39.20;21.80;;;3.80;88.50;;;;;;5071809;28;20098;-80
2022/12/13 11:14:55;;;;;;;34.45;20.63;;;3.70;87.90;;;;;;5072360;28;20074;-79
2022/12/13 11:17:25;;;;;;;35.58;21.17;;;3.70;88.30;;;;;;5073646;28;20020;-78
2022/12/13 11:19:56;;;;;;;38.08;21.80;;;3.80;87.80;;;;;;5073384;28;20025;-80
2022/12/13 11:22:31;;;;;;;36.17;20.85;;;3.70;87.00;;;;;;5073965;28;20040;-80
2022/12/13 11:25:02;;;;;;;34.65;20.55;;;3.70;87.20;;;;;;5071600;28;20042;-81
2022/12/13 11:27:40;;;;;;;33.80;19.65;;;3.70;87.60;;;;;;5073315;28;20067;-79
2022/12/13 11:30:17;;;;;;;35.42;19.45;;;3.80;87.90;;;;;;5072394;28;20033;-81
2022/12/13 11:32:43;;;;;;;36.13;20.25;;;3.80;87.50;;;;;;5073186;28;20029;-83
2022/12/13 11:35:38;;;;;;;35.83;20.35;;;3.90;87.50;;;;;;5073578;28;20021;-82
2022/12/13 11:38:21;;;;;;;33.45;18.95;;;3.90;87.30;;;;;;5072222;28;20082;-81
2022/12/13 11:41:02;;;;;;;33.33;19.63;;;3.90;87.70;;;;;;5072126;28;20028;-81
2022/12/13 11:43:38;;;;;;;36.00;21.38;;;4.00;88.20;;;;;;5072287;28;20401;-81
2022/12/13 11:46:16;;;;;;;35.95;20.50;;;4.00;87.20;;;;;;5072110;28;20029;-82
2022/12/13 11:48:57;;;;;;;36.60;20.08;;;3.90;87.20;;;;;;5073249;28;20028;-81
2022/12/13 11:51:32;;;;;;;37.55;21.90;;;3.90;87.00;;;;;;5072950;28;20485;-81
2022/12/13 11:54:03;;;;;;;34.88;20.35;;;3.90;86.30;;;;;;5075879;28;20090;-80
2022/12/13 11:56:42;;;;;;;37.92;22.92;;;3.90;87.00;;;;;;5076165;28;20046;-80
2022/12/13 11:59:14;;;;;;;35.10;20.65;;;3.90;87.10;;;;;;5076002;28;20028;-81
2022/12/13 12:01:46;;;;;;;34.42;20.50;;;3.80;87.40;;;;;;5075937;28;20058;-80
2022/12/13 12:04:43;;;;;;;35.87;20.67;;;3.90;87.60;;;;;;5076946;28;20415;-80
2022/12/13 12:07:13;;;;;;;38.78;21.40;;;3.80;87.20;;;;;;5068435;28;20051;-81
2022/12/13 12:09:49;;;;;;;40.28;21.27;;;3.60;86.70;;;;;;5075845;28;20024;-81
2022/12/13 12:12:38;;;;;;;39.75;21.70;;;3.60;87.40;;;;;;5075745;28;20097;-81
2022/12/13 12:15:06;;;;;;;37.42;21.77;;;3.60;86.90;;;;;;5078695;28;20032;-80
2022/12/13 12:17:32;;;;;;;40.42;22.73;;;3.50;86.70;;;;;;5077901;28;20024;-81
2022/12/13 12:19:58;;;;;;;40.08;21.98;;;3.30;86.90;;;;;;5059883;28;20111;-82
2022/12/13 12:22:42;;;;;;;35.00;20.63;;;3.30;87.80;;;;;;5075492;28;20029;-82
2022/12/13 12:25:46;;;;;;;38.08;21.65;;;3.30;88.00;;;;;;5076281;28;20074;-81
2022/12/13 12:28:42;;;;;;;33.90;19.70;;;3.30;87.50;;;;;;5071759;28;20477;-81
2022/12/13 12:31:29;;;;;;;37.65;21.00;;;3.30;88.10;;;;;;5076728;28;20039;-81
2022/12/13 12:34:07;;;;;;;36.75;20.65;;;3.30;88.90;;;;;;5076929;28;20034;-81
2022/12/13 12:36:47;;;;;;;34.25;20.00;;;3.30;88.70;;;;;;5076703;28;20028;-80
2022/12/13 12:39:19;;;;;;;39.10;21.27;;;3.30;88.50;;;;;;5076063;28;20036;-81
2022/12/13 12:42:09;;;;;;;34.60;19.45;;;3.30;88.20;;;;;;5076612;28;20020;-81
2022/12/13 12:44:50;;;;;;;40.50;21.92;;;3.30;87.60;;;;;;5076403;28;20513;-81
2022/12/13 12:47:46;;;;;;;37.38;21.42;;;3.00;87.30;;;;;;5075050;28;20385;-81
2022/12/13 12:50:57;;;;;;;34.17;19.25;;;3.00;88.00;;;;;;5074944;28;20357;-81
2022/12/13 12:53:30;;;;;;;35.67;20.83;;;2.90;88.40;;;;;;5038419;28;20048;-80
2022/12/13 12:55:58;;;;;;;;;;;3.00;88.80;;;;;;5076078;28;20111;-81
2022/12/13 12:59:13;;;;;;;32.40;17.83;;;3.00;88.40;;;;;;5076280;28;19910;-82